Memphis, TN (37501)

4:11 AM CST on February 11, 2016 (GMT -0600)
Midtown Memphis (OEM) | | Change Station
CLOSE
Current Station
Personal Weather Station
Location: Memphis, TN
Elevation: 320 ft
Nearby Weather Stations

Elev 320 ft 35.13 °N, 89.97 °W | Updated 1 minute ago

Clear
Clear
33.1 °F
Feels Like 33 °F
N
1.0
Wind Variable Wind from SE
Gusts 1.0 mph

Today
High -- | Low -- °F
--% Chance of Precip.
Yesterday
High -- | Low -- °F
Precip. -- in
Pressure 30.05 in
Visibility 10.0 miles
Clouds Clear
Windchill 33 °F
Dew Point 19 °F
Humidity 55%
Rainfall 0.00 in
Snow Depth Not available.
6:50 AM 5:38 PM
Waxing Crescent, 11% visible
METAR KMEM 110954Z 14005KT 10SM CLR 01/M09 A3004 RMK AO2 SLP174 T00111094
Pressure 30.05 in
Visibility 10.0 miles
Clouds Clear
Windchill 33 °F
Dew Point 19 °F
Humidity 55%
Rainfall 0.00 in
Snow Depth Not available.
6:50 AM 5:38 PM
Waxing Crescent, 11% visible
METAR KMEM 110954Z 14005KT 10SM CLR 01/M09 A3004 RMK AO2 SLP174 T00111094

10-Day Weather Forecast

Almanac

Astronomy

Feb. 11, 2016 Rise Set
Actual Time
Civil Twilight
Nautical Twilight
Astronomical Twilight
Moon
Length of Visible Light
Length of Day
Tomorrow will be .
, % of the Moon is Illuminated

Today's Extremes

State Highs State Lows

Community

WunderPhotos

Upload Photos

1,892,030 photos uploaded!

WunderBlog® & News

Nearby

Air Quality

  Air Quality AQ Index Pollutant
Not available.

Snow Depth

Station Depth Elevation

Earthquake Activity

City Distance Mag. Time & Date
Minimum magnitude displayed is 2.5.

Coastal Water Temperatures

Place Temperature

Stations

Nearby Weather Stations

Station Location Temp. Windchill Dew Point Humidity Wind Precip. Elev Updated Type
                   

Watches & Warnings

There are currently no watches in effect.